Apellis — 3FJT2 — position and weather

sailwx.info

Track history (hours):
 
Tides and Currents Weather Stations Pressure Air Temp Water Temp Dewpoint Dewpoint Depression Visibility Wind Speed Wind Dir Waves Ship Positions

Apellis

Last reported at 2016-Jan-24 15:33 UTC. Time now 2016-Feb-13 06:49 UTC.
Position N 06°28' E 092°59'.
Warning: this ship's position is 19 days out of date.

Length 178 m; draft 7.9 m.

Type: Cargo ship. MMSI: 353847000.

Date/timePositionNaut miles runAvg speedWind from/ knotsBaromVisibWave heightAir tempDewpointWater temp
2016-Jan-24 15:33N 06°28' E 092°59'1913.6
2016-Jan-24 14:09N 06°28' E 093°18'1012.9
2016-Jan-24 13:25N 06°28' E 093°28'1112.5
2016-Jan-24 12:32N 06°29' E 093°39'57813.1
2016-Jan-22 16:26N 01°60' E 102°12'1213.8
2016-Jan-22 15:33N 01°54' E 102°23'1313.3
2016-Jan-22 14:33N 01°48' E 102°35'6713.0
2016-Jan-22 09:23N 01°13' E 103°32'1212.8
2016-Jan-22 08:27N 01°09' E 103°43'1010.4
2016-Jan-22 07:32N 01°12' E 103°52'1010.3
2016-Jan-22 06:32N 01°18' E 104°01'0 0.1
2016-Jan-22 04:32N 01°18' E 104°01'0 0.1
2016-Jan-22 03:33N 01°18' E 104°01'0 0.1
2016-Jan-22 00:16N 01°18' E 104°01'0 0.0
2016-Jan-21 23:23N 01°18' E 104°01'0 0.0
2016-Jan-21 22:28N 01°18' E 104°01'0 0.0
2016-Jan-21 21:18N 01°18' E 104°01'0 0.0
2016-Jan-21 20:28N 01°18' E 104°01'0 0.0
2016-Jan-21 18:26N 01°18' E 104°01'0 0.0
2016-Jan-21 17:23N 01°18' E 104°01'3 3.1
2016-Jan-21 16:31N 01°17' E 103°58'7 7.3
2016-Jan-21 15:30N 01°17' E 104°06'  
Track history (hours):
 
Tides and Currents Weather Stations Pressure Air Temp Water Temp Dewpoint Dewpoint Depression Visibility Wind Speed Wind Dir Waves Ship Positions

Apellis

Last reported at 2016-Jan-24 15:33 UTC. Time now 2016-Feb-13 06:49 UTC.
Position N 06°28' E 092°59'.
Warning: this ship's position is 19 days out of date.

Length 178 m; draft 7.9 m.

Type: Cargo ship. MMSI: 353847000.

Date/timePositionNaut miles runAvg speedWind from/ knotsBaromVisibWave heightAir tempDewpointWater temp
2016-Jan-24 15:33N 06°28' E 092°59'1913.6
2016-Jan-24 14:09N 06°28' E 093°18'1012.9
2016-Jan-24 13:25N 06°28' E 093°28'1112.5
2016-Jan-24 12:32N 06°29' E 093°39'57813.1
2016-Jan-22 16:26N 01°60' E 102°12'1213.8
2016-Jan-22 15:33N 01°54' E 102°23'1313.3
2016-Jan-22 14:33N 01°48' E 102°35'6713.0
2016-Jan-22 09:23N 01°13' E 103°32'1212.8
2016-Jan-22 08:27N 01°09' E 103°43'1010.4
2016-Jan-22 07:32N 01°12' E 103°52'1010.3
2016-Jan-22 06:32N 01°18' E 104°01'0 0.1
2016-Jan-22 04:32N 01°18' E 104°01'0 0.1
2016-Jan-22 03:33N 01°18' E 104°01'0 0.1
2016-Jan-22 00:16N 01°18' E 104°01'0 0.0
2016-Jan-21 23:23N 01°18' E 104°01'0 0.0
2016-Jan-21 22:28N 01°18' E 104°01'0 0.0
2016-Jan-21 21:18N 01°18' E 104°01'0 0.0
2016-Jan-21 20:28N 01°18' E 104°01'0 0.0
2016-Jan-21 18:26N 01°18' E 104°01'0 0.0
2016-Jan-21 17:23N 01°18' E 104°01'3 3.1
2016-Jan-21 16:31N 01°17' E 103°58'7 7.3
2016-Jan-21 15:30N 01°17' E 104°06'  

Dump ship's entire track history